KOVE/OVE METAR and TAF weather

Enter ICAO airport designator
Station Type Date Time Source
KOVE METAR 2022/09/26 08:53 UTC NOAA

KOVE 260853Z AUTO 12004KT 10SM CLR 23/14 A2991 RMK AO2 SLP129 T02330144 58002 $


Station Type Date Time Source
KOVE Decoded METAR 2022/09/26 08:53 UTC NOAA

OROVILLE MUNICIPAL AIRPORT, CA, United States (KOVE) 39-30N 121-37W 58M
Sep 26, 2022 - 04:53 AM EDT / 2022.09.26 0853 UTC
Wind: from the ESE (120 degrees) at 5 MPH (4 KT):0
Visibility: 10 mile(s):0
Sky conditions: clear
Temperature: 73.9 F (23.3 C)
Dew Point: 57.9 F (14.4 C)
Relative Humidity: 57%
Pressure (altimeter): 29.91 in. Hg (1012 hPa)
Pressure tendency: 0.01 inches (0.2 hPa) lower than three hours ago
ob: KOVE 260853Z AUTO 12004KT 10SM CLR 23/14 A2991 RMK AO2 SLP129 T02330144 58002
cycle: 9

Station Type Date Time Source
KOVE TAF UTC NOAA

Error!

Example: see airport list